createdAt,value
2022-09-02T00:02:02.931Z,80.09
2022-09-02T00:07:02.779Z,79.79
2022-09-02T00:12:02.825Z,80.19
2022-09-02T00:17:02.611Z,79.27
2022-09-02T00:22:02.937Z,79.99
2022-09-02T00:27:02.443Z,79.89
2022-09-02T00:32:02.528Z,80.50
2022-09-02T00:37:02.300Z,80.50
2022-09-02T00:42:02.315Z,79.54
2022-09-02T00:47:02.241Z,78.39
2022-09-02T00:52:05.260Z,78.19
2022-09-02T00:57:02.189Z,80.64
2022-09-02T01:02:02.240Z,80.64
2022-09-02T01:07:02.181Z,80.29
2022-09-02T01:12:01.862Z,79.89
2022-09-02T01:17:01.802Z,81.09
2022-09-02T01:22:01.801Z,80.40
2022-09-02T01:27:01.867Z,82.00
2022-09-02T01:32:02.206Z,82.45
2022-09-02T01:37:01.580Z,82.35
2022-09-02T01:42:01.499Z,82.65
2022-09-02T01:47:01.520Z,83.20
2022-09-02T01:52:04.363Z,82.65
2022-09-02T01:57:01.338Z,83.71
2022-09-02T02:02:01.343Z,82.59
2022-09-02T02:07:01.219Z,81.84
2022-09-02T02:12:01.244Z,82.14
2022-09-02T02:17:01.178Z,83.54
2022-09-02T02:22:01.044Z,84.30
2022-09-02T02:27:00.939Z,83.44
2022-09-02T02:32:00.875Z,83.44
2022-09-02T02:37:00.698Z,83.59
2022-09-02T02:42:00.771Z,85.16
2022-09-02T02:47:00.714Z,85.36
2022-09-02T02:52:03.751Z,85.06
2022-09-02T02:57:00.643Z,85.77
2022-09-02T03:02:00.595Z,84.95
2022-09-02T03:07:00.457Z,84.85
2022-09-02T03:12:00.344Z,84.65
2022-09-02T03:17:00.326Z,84.44
2022-09-02T03:22:00.166Z,85.40
2022-09-02T03:27:00.073Z,85.06
2022-09-02T03:32:07.927Z,83.24
2022-09-02T03:36:59.926Z,82.77
2022-09-02T03:41:59.995Z,85.89
2022-09-02T03:46:59.894Z,86.26
2022-09-02T03:52:02.834Z,86.16
2022-09-02T03:56:59.762Z,86.16
2022-09-02T04:01:59.712Z,85.40
2022-09-02T04:06:59.542Z,84.55
2022-09-02T04:11:59.506Z,83.62
2022-09-02T04:16:59.411Z,85.34
2022-09-02T04:21:59.358Z,85.64
2022-09-02T04:27:03.462Z,85.89
2022-09-02T04:31:59.226Z,86.51
2022-09-02T04:36:59.108Z,85.34
2022-09-02T04:41:59.316Z,84.79
2022-09-02T04:46:58.954Z,83.66
2022-09-02T04:52:02.086Z,85.34
2022-09-02T04:56:59.099Z,84.85
2022-09-02T05:01:58.990Z,79.75
2022-09-02T05:06:58.691Z,77.06
2022-09-02T05:11:58.677Z,72.21
2022-09-02T05:16:58.604Z,69.68
2022-09-02T05:21:58.589Z,67.35
2022-09-02T05:26:58.656Z,67.45
2022-09-02T05:31:58.401Z,66.55
2022-09-02T05:36:58.286Z,64.67
2022-09-02T05:41:58.362Z,64.03
2022-09-02T05:46:58.268Z,66.81
2022-09-02T05:52:01.295Z,65.78
2022-09-02T05:56:58.187Z,63.53
2022-09-02T06:01:58.131Z,59.46
2022-09-02T06:06:58.046Z,58.93
2022-09-02T06:11:58.082Z,58.80
2022-09-02T06:16:57.785Z,57.37
2022-09-02T06:21:57.992Z,57.17
2022-09-02T06:26:57.893Z,56.84
2022-09-02T06:31:57.624Z,56.63
2022-09-02T06:36:57.546Z,57.44
2022-09-02T06:41:57.768Z,55.78
2022-09-02T06:46:57.421Z,57.77
2022-09-02T06:52:00.642Z,56.91
2022-09-02T06:56:57.625Z,58.80
2022-09-02T07:01:57.384Z,55.65
2022-09-02T07:06:57.144Z,57.14
2022-09-02T07:11:59.860Z,57.77
2022-09-02T07:16:58.248Z,57.08
2022-09-02T07:21:57.044Z,57.01
2022-09-02T07:26:56.941Z,58.04
2022-09-02T07:31:56.985Z,59.27
2022-09-02T07:37:01.771Z,59.65
2022-09-02T07:41:57.755Z,58.42
2022-09-02T07:47:04.570Z,58.11
2022-09-02T07:51:59.579Z,58.92
2022-09-02T07:56:56.718Z,59.14
2022-09-02T08:01:56.506Z,58.06
2022-09-02T08:06:56.471Z,59.14
2022-09-02T08:11:56.454Z,58.56
2022-09-02T08:16:56.486Z,57.96
2022-09-02T08:21:56.398Z,57.63
2022-09-02T08:26:56.413Z,57.93
2022-09-02T08:31:56.198Z,60.03
2022-09-02T08:36:56.747Z,57.23
2022-09-02T08:41:56.124Z,58.96
2022-09-02T08:46:55.933Z,56.76
2022-09-02T08:52:01.229Z,58.03
2022-09-02T08:56:55.854Z,57.23
2022-09-02T09:01:55.744Z,54.14
2022-09-02T09:06:55.617Z,55.15
2022-09-02T09:11:55.720Z,53.24
2022-09-02T09:16:55.794Z,50.59
2022-09-02T09:21:55.666Z,49.27
2022-09-02T09:26:55.406Z,49.05
2022-09-02T09:31:55.411Z,46.75
2022-09-02T09:36:55.171Z,47.63
2022-09-02T09:41:55.182Z,46.61
2022-09-02T09:46:55.145Z,43.19
2022-09-02T09:52:05.949Z,42.99
2022-09-02T09:56:55.107Z,42.11
2022-09-02T10:01:54.967Z,41.61
2022-09-02T10:06:54.867Z,41.41
2022-09-02T10:11:54.809Z,41.71
2022-09-02T10:16:54.879Z,41.50
2022-09-02T10:21:54.614Z,40.38
2022-09-02T10:26:54.522Z,40.88
2022-09-02T10:31:55.939Z,40.88
2022-09-02T10:36:54.699Z,40.14
2022-09-02T10:41:54.434Z,38.86
2022-09-02T10:46:54.414Z,40.68
2022-09-02T10:51:57.306Z,40.74
2022-09-02T10:56:54.232Z,39.53
2022-09-02T11:01:54.125Z,38.01
2022-09-02T11:07:09.388Z,36.98
2022-09-02T11:11:57.059Z,38.14
2022-09-02T11:16:53.882Z,39.13
2022-09-02T11:21:53.796Z,38.16
2022-09-02T11:26:53.704Z,35.85
2022-09-02T11:31:54.586Z,37.36
2022-09-02T11:36:54.738Z,36.19
2022-09-02T11:41:54.589Z,37.34
2022-09-02T11:46:53.827Z,37.43
2022-09-02T11:51:56.445Z,36.96
2022-09-02T11:57:00.840Z,37.24
2022-09-02T12:01:53.195Z,36.87
2022-09-02T12:06:53.260Z,37.04
2022-09-02T12:11:53.119Z,38.14
2022-09-02T12:16:53.159Z,37.43
2022-09-02T12:21:53.001Z,36.36
2022-09-02T12:26:53.074Z,37.15
2022-09-02T12:31:52.873Z,36.83
2022-09-02T12:37:00.635Z,35.83
2022-09-02T12:41:52.692Z,37.24
2022-09-02T12:46:52.872Z,36.61
2022-09-02T12:51:55.712Z,36.10
2022-09-02T12:56:52.550Z,36.22
2022-09-02T13:01:52.568Z,35.50
2022-09-02T13:06:52.344Z,36.22
2022-09-02T13:11:52.494Z,36.45
2022-09-02T13:16:52.451Z,36.17
2022-09-02T13:21:52.223Z,36.90
2022-09-02T13:26:52.081Z,36.98
2022-09-02T13:31:52.114Z,36.90
2022-09-02T13:36:51.999Z,36.57
2022-09-02T13:41:51.933Z,36.05
2022-09-02T13:46:51.811Z,35.46
2022-09-02T13:51:55.023Z,36.47
2022-09-02T13:56:51.737Z,37.20
2022-09-02T14:01:51.846Z,35.49
2022-09-02T14:06:51.584Z,35.89
2022-09-02T14:11:51.513Z,35.10
2022-09-02T14:16:51.451Z,36.00
2022-09-02T14:21:51.483Z,35.92
2022-09-02T14:26:51.278Z,35.57
2022-09-02T14:31:51.280Z,34.12
2022-09-02T14:36:51.176Z,33.42
2022-09-02T14:41:51.211Z,33.73
2022-09-02T14:46:51.058Z,34.25
2022-09-02T14:51:54.091Z,35.49
2022-09-02T14:56:50.993Z,33.06
2022-09-02T15:01:51.096Z,31.62
2022-09-02T15:06:51.006Z,31.51
2022-09-02T15:11:50.754Z,30.30
2022-09-02T15:16:50.721Z,31.07
2022-09-02T15:21:50.844Z,30.81
2022-09-02T15:26:50.525Z,31.85
2022-09-02T15:31:50.512Z,32.78
2022-09-02T15:36:50.498Z,33.33
2022-09-02T15:41:50.439Z,34.74
2022-09-02T15:46:50.262Z,36.15
2022-09-02T15:51:55.340Z,36.25
2022-09-02T15:56:50.218Z,37.08
2022-09-02T16:01:50.143Z,36.49
2022-09-02T16:06:50.060Z,36.98
2022-09-02T16:11:57.879Z,36.70
2022-09-02T16:16:50.746Z,37.51
2022-09-02T16:21:49.846Z,37.83
2022-09-02T16:26:49.723Z,38.05
2022-09-02T16:32:02.274Z,38.27
2022-09-02T16:36:50.655Z,39.40
2022-09-02T16:41:49.571Z,39.74
2022-09-02T16:46:49.717Z,40.16
2022-09-02T16:51:57.894Z,40.45
2022-09-02T16:56:50.315Z,40.97
2022-09-02T17:01:49.434Z,40.37
2022-09-02T17:06:49.197Z,40.58
2022-09-02T17:11:49.181Z,41.19
2022-09-02T17:16:49.272Z,41.47
2022-09-02T17:21:49.221Z,41.89
2022-09-02T17:26:48.992Z,41.49
2022-09-02T17:31:49.014Z,41.91
2022-09-02T17:36:48.755Z,42.03
2022-09-02T17:41:48.981Z,41.93
2022-09-02T17:46:48.752Z,42.03
2022-09-02T17:51:51.689Z,42.13
2022-09-02T17:56:48.735Z,43.05
2022-09-02T18:01:48.669Z,43.16
2022-09-02T18:06:48.513Z,42.96
2022-09-02T18:11:48.420Z,42.55
2022-09-02T18:16:51.510Z,43.05
2022-09-02T18:21:48.324Z,43.88
2022-09-02T18:26:48.128Z,43.98
2022-09-02T18:31:48.270Z,43.98
2022-09-02T18:36:48.060Z,44.80
2022-09-02T18:41:48.010Z,44.08
2022-09-02T18:46:48.092Z,44.50
2022-09-02T18:51:50.905Z,44.40
2022-09-02T18:56:47.892Z,44.90
2022-09-02T19:01:47.841Z,44.20
2022-09-02T19:06:47.706Z,43.98
2022-09-02T19:11:47.684Z,44.40
2022-09-02T19:16:47.571Z,44.30
2022-09-02T19:21:47.449Z,44.18
2022-09-02T19:26:47.332Z,44.60
2022-09-02T19:31:47.483Z,44.80
2022-09-02T19:36:47.277Z,45.22
2022-09-02T19:41:48.405Z,45.72
2022-09-02T19:51:51.083Z,45.62
2022-09-02T19:56:46.982Z,46.15
2022-09-02T20:01:46.982Z,45.92
2022-09-02T20:06:46.799Z,46.55
2022-09-02T20:11:46.899Z,46.55
2022-09-02T20:16:46.724Z,47.05
2022-09-02T20:21:59.121Z,47.05
2022-09-02T20:26:53.973Z,46.53
2022-09-02T20:31:46.613Z,47.77
2022-09-02T20:36:46.514Z,48.18
2022-09-02T20:41:46.548Z,48.60
2022-09-02T20:46:46.289Z,48.90
2022-09-02T20:51:49.353Z,49.10
2022-09-02T20:56:46.336Z,49.53
2022-09-02T21:01:46.373Z,49.21
2022-09-02T21:06:46.030Z,49.53
2022-09-02T21:11:45.949Z,49.51
2022-09-02T21:16:46.029Z,49.40
2022-09-02T21:21:45.771Z,49.71
2022-09-02T21:26:48.274Z,49.40
2022-09-02T21:31:45.823Z,49.71
2022-09-02T21:36:46.805Z,49.80
2022-09-02T21:41:45.676Z,49.71
2022-09-02T21:46:45.532Z,49.80
2022-09-02T21:51:49.133Z,50.01
2022-09-02T21:56:45.504Z,51.16
2022-09-02T22:01:45.401Z,50.86
2022-09-02T22:06:45.300Z,50.56
2022-09-02T22:11:45.106Z,50.84
2022-09-02T22:16:45.164Z,50.76
2022-09-02T22:21:45.138Z,50.96
2022-09-02T22:26:45.030Z,51.36
2022-09-02T22:31:44.916Z,51.46
2022-09-02T22:36:44.884Z,51.68
2022-09-02T22:41:44.842Z,51.89
2022-09-02T22:46:44.810Z,52.42
2022-09-02T22:51:47.651Z,52.94
2022-09-02T22:56:44.491Z,53.98
2022-09-02T23:01:45.390Z,53.67
2022-09-02T23:06:44.432Z,54.10
2022-09-02T23:11:44.447Z,54.10
2022-09-02T23:16:44.208Z,54.30
2022-09-02T23:21:44.343Z,54.83
2022-09-02T23:26:44.147Z,54.63
2022-09-02T23:31:44.134Z,54.94
2022-09-02T23:36:43.952Z,57.03
2022-09-02T23:41:44.117Z,58.80
2022-09-02T23:46:43.881Z,62.05
2022-09-02T23:51:46.827Z,61.62
2022-09-02T23:56:43.680Z,62.38
